Armada, Michigan
Current Conditions -  °F | °C
As of 12:58 AM on Thursday 23 Oct 2014 (Local Time) from KMTC Reporting Station
Clear Clear  
Wind Chill: 34°   Ceiling: Unl
Heat Index: 39°   Visibility: 10mi
Dew Point: 38°   Wind: 7mph
Humidity: 98%   Direction: 320°NW
Pressure: 30.25"   Gusts: NA
Location:  42.84°N, 82.88°W
Report Text: KMTC 230458Z AUTO 32006KT 10SM CLR 04/04 A3025 RMK AO2 SLP250 T00380035 401360035 $
Loading
Personal Weather Stations






























Interactive Weather Map New forecast layout! Learn more

10-Day Weather Forecast

Advertisements
Track Severe Weather on mobile